Terminal Aerodrome Forecast
Issued by NWS Lake Charles, LA

Home | Current Version | Previous Version | Text Only | Print | Product List | Glossary On
Versions: 1 2 3 4 5 6 7 8 9 10 11 12 13 14 15 16 17 18 19 20
157
FTUS44 KLCH 290522
TAFAEX
TAF
KAEX 290522Z 2906/3006 VRB03KT P6SM SCT250
      TEMPO 2909/2913 4SM BR
     FM291600 VRB05KT P6SM SCT045=

USA.gov is the U.S. government's official web portal to all federal, state and local government web resources and services.